Time;durP1;ratioP1;P1;durP2;ratioP2;P2;SDS_P1;SDS_P2;PMS_P1;PMS_P2;Temp;Humidity;BMP_temperature;BMP_pressure;BME280_temperature;BME280_humidity;BME280_pressure;Samples;Min_cycle;Max_cycle;Signal;HPM_P1;HPM_P2
2022/02/15 00:00:53;;;;;;;10.10;6.40;;;;;;;22.91;29.96;101508.08;104327;1311;61947;-83
2022/02/15 00:03:33;;;;;;;;;;;;;;;;;;;;;
2022/02/15 00:06:13;;;;;;;9.40;6.70;;;;;;;22.91;30.03;101504.14;104251;1311;75482;-82
2022/02/15 00:08:48;;;;;;;10.20;6.30;;;;;;;22.92;29.82;101502.15;104257;1311;61999;-82
2022/02/15 00:11:17;;;;;;;9.80;6.40;;;;;;;22.92;30.00;101504.66;104266;1312;61866;-82
2022/02/15 00:13:48;;;;;;;10.60;6.40;;;;;;;22.91;29.93;101498.77;104310;1311;74117;-82
2022/02/15 00:16:24;;;;;;;;;;;;;;;;;;;;;
2022/02/15 00:19:02;;;;;;;9.60;6.50;;;;;;;22.91;29.84;101491.26;104246;1313;62101;-85
2022/02/15 00:21:37;;;;;;;9.00;6.20;;;;;;;22.91;29.93;101489.98;104266;1311;62104;-86
2022/02/15 00:24:13;;;;;;;8.40;6.10;;;;;;;22.91;29.76;101487.65;104317;1312;73974;-81
2022/02/15 00:26:39;;;;;;;8.80;5.80;;;;;;;22.91;29.83;101482.63;104346;1311;75655;-84
2022/02/15 00:29:21;;;;;;;10.60;6.60;;;;;;;22.92;29.87;101481.33;104337;1311;62225;-81
2022/02/15 00:31:52;;;;;;;7.90;6.00;;;;;;;22.91;29.98;101479.73;104282;1311;62242;-85
2022/02/15 00:34:27;;;;;;;9.30;5.80;;;;;;;22.91;29.97;101476.87;104336;1311;72745;-83
2022/02/15 00:37:00;;;;;;;9.80;6.30;;;;;;;22.91;29.96;101473.64;104224;1311;74298;-85
2022/02/15 00:39:38;;;;;;;8.90;5.90;;;;;;;22.91;30.00;101470.75;104277;1312;62095;-81
2022/02/15 00:42:14;;;;;;;9.30;6.10;;;;;;;22.92;30.00;101468.38;104339;1311;62213;-85
2022/02/15 00:44:51;;;;;;;10.50;6.30;;;;;;;22.91;29.87;101461.08;104357;1311;73878;-85
2022/02/15 00:47:17;;;;;;;8.80;5.80;;;;;;;22.91;30.07;101465.56;104277;1311;76543;-78
2022/02/15 00:50:11;;;;;;;9.50;5.90;;;;;;;22.92;29.95;101463.93;104264;1312;62147;-82
2022/02/15 00:52:45;;;;;;;10.10;6.00;;;;;;;22.91;29.81;101461.96;104345;1311;61948;-82
2022/02/15 00:55:24;;;;;;;8.20;5.80;;;;;;;22.91;30.01;101458.77;104248;1311;73042;-82
2022/02/15 00:58:11;;;;;;;9.20;5.90;;;;;;;22.91;29.89;101456.25;104279;1311;75772;-82
2022/02/15 01:00:39;;;;;;;8.70;5.70;;;;;;;22.91;29.98;101461.29;104224;1311;61970;-79
2022/02/15 01:03:10;;;;;;;8.40;5.80;;;;;;;22.91;29.98;101466.44;104352;1311;62240;-84
2022/02/15 01:05:47;;;;;;;8.40;5.50;;;;;;;22.91;29.95;101466.10;104295;1311;73859;-80
2022/02/15 01:08:25;;;;;;;9.00;5.90;;;;;;;22.92;29.97;101465.88;104220;1311;76039;-84
2022/02/15 01:10:57;;;;;;;12.10;5.90;;;;;;;22.91;29.77;101466.64;104333;1311;62094;-79
2022/02/15 01:13:26;;;;;;;10.90;6.60;;;;;;;22.91;29.80;101463.59;104261;1311;62148;-85
2022/02/15 01:15:56;;;;;;;9.20;6.20;;;;;;;22.91;29.86;101464.52;104275;1311;73829;-83
2022/02/15 01:18:29;;;;;;;9.30;6.20;;;;;;;22.90;29.85;101458.60;104467;1307;75709;-83
2022/02/15 01:20:58;;;;;;;9.50;5.90;;;;;;;22.90;29.83;101454.48;104514;1307;62048;-81
2022/02/15 01:23:28;;;;;;;9.90;6.20;;;;;;;22.91;29.90;101451.07;104593;1307;61997;-82
2022/02/15 01:26:12;;;;;;;9.20;6.20;;;;;;;22.90;29.94;101450.75;104511;1306;73880;-78
2022/02/15 01:28:46;;;;;;;9.20;5.70;;;;;;;22.90;29.79;101441.59;104487;1308;76597;-79
2022/02/15 01:31:21;;;;;;;10.50;6.90;;;;;;;22.89;29.93;101438.94;104453;1307;61995;-83
2022/02/15 01:33:52;;;;;;;10.40;6.60;;;;;;;22.90;30.01;101440.48;104700;1306;62665;-86
2022/02/15 01:36:41;;;;;;;10.30;7.00;;;;;;;22.91;29.82;101436.53;104573;1306;73684;-78
2022/02/15 01:39:15;;;;;;;8.20;5.70;;;;;;;22.90;29.79;101428.30;104159;1313;75553;-83
2022/02/15 01:41:46;;;;;;;9.00;6.00;;;;;;;22.90;29.91;101426.14;104122;1314;62080;-82
2022/02/15 01:44:21;;;;;;;9.40;6.60;;;;;;;22.91;29.74;101424.14;104158;1313;62120;-82
2022/02/15 01:46:58;;;;;;;9.20;6.00;;;;;;;22.90;29.96;101419.48;103463;1316;72957;-83
2022/02/15 01:49:26;;;;;;;9.10;6.50;;;;;;;22.91;29.86;101419.11;104134;1315;77033;-80
2022/02/15 01:51:52;;;;;;;9.00;6.10;;;;;;;22.91;29.63;101421.43;104129;1314;62182;-82
2022/02/15 01:54:31;;;;;;;;;;;;;;;;;;;;;
2022/02/15 01:56:59;;;;;;;9.40;6.40;;;;;;;22.91;29.76;101419.30;104064;1314;72242;-84
2022/02/15 01:59:39;;;;;;;9.20;6.30;;;;;;;22.90;29.84;101418.23;104119;1314;76560;-87
2022/02/15 02:02:14;;;;;;;10.60;6.30;;;;;;;22.91;29.73;101418.55;104109;1314;62525;-85
2022/02/15 02:07:52;;;;;;;9.70;6.10;;;;;;;22.90;29.81;101419.19;104123;1314;74426;-82
2022/02/15 02:10:25;;;;;;;10.60;6.40;;;;;;;22.90;29.79;101415.59;104080;1314;76903;-80
2022/02/15 02:13:01;;;;;;;10.40;6.90;;;;;;;22.90;29.61;101413.61;103901;1314;61982;-87
2022/02/15 02:15:47;;;;;;;8.50;6.00;;;;;;;22.90;29.87;101409.83;104146;1314;61982;-83
2022/02/15 02:18:20;;;;;;;12.10;6.60;;;;;;;22.89;29.73;101416.34;104706;1307;74089;-87
2022/02/15 02:20:54;;;;;;;11.50;6.50;;;;;;;22.90;29.75;101422.59;104590;1307;75496;-86
2022/02/15 02:23:25;;;;;;;10.20;6.50;;;;;;;22.91;29.75;101424.14;104592;1307;61989;-83
2022/02/15 02:26:02;;;;;;;9.70;6.40;;;;;;;22.90;29.60;101425.95;104637;1306;62061;-86
2022/02/15 02:28:36;;;;;;;10.50;6.70;;;;;;;22.90;29.75;101423.96;104535;1305;73835;-86
2022/02/15 02:31:07;;;;;;;10.00;6.80;;;;;;;22.90;29.78;101426.55;104494;1307;76741;-85
2022/02/15 02:33:36;;;;;;;8.30;6.20;;;;;;;22.91;29.86;101423.27;104376;1308;62077;-82
2022/02/15 02:36:05;;;;;;;10.20;6.80;;;;;;;22.90;29.68;101423.82;104408;1307;61921;-82
2022/02/15 02:38:42;;;;;;;10.70;6.90;;;;;;;22.90;29.68;101419.52;104621;1307;72979;-82
2022/02/15 02:41:17;;;;;;;9.00;6.20;;;;;;;22.90;29.94;101420.03;104493;1306;75545;-83
2022/02/15 02:43:46;;;;;;;10.50;6.80;;;;;;;22.90;29.73;101424.91;104517;1307;62001;-86
2022/02/15 02:46:14;;;;;;;11.60;7.20;;;;;;;22.90;29.75;101429.73;104491;1308;62239;-81
2022/02/15 02:48:53;;;;;;;9.70;6.80;;;;;;;22.90;29.66;101433.51;104648;1306;72700;-85
2022/02/15 02:51:26;;;;;;;11.40;7.20;;;;;;;22.90;29.84;101430.98;104504;1307;75656;-82
2022/02/15 02:54:06;;;;;;;9.80;6.70;;;;;;;22.90;29.75;101426.89;104632;1307;62111;-84
2022/02/15 02:56:45;;;;;;;10.80;6.70;;;;;;;22.90;29.76;101425.81;104532;1306;62034;-85
2022/02/15 02:59:21;;;;;;;10.00;7.10;;;;;;;22.90;29.80;101430.70;104702;1305;73312;-88
2022/02/15 03:01:47;;;;;;;10.10;7.10;;;;;;;22.90;29.72;101429.40;104482;1306;76611;-79
2022/02/15 03:04:26;;;;;;;10.80;7.30;;;;;;;22.90;29.68;101432.46;104509;1307;62737;-83
2022/02/15 03:06:52;;;;;;;10.30;6.90;;;;;;;22.89;29.67;101433.94;104528;1306;62076;-83
2022/02/15 03:09:35;;;;;;;10.50;7.60;;;;;;;22.89;29.77;101435.36;104544;1308;73949;-84
2022/02/15 03:12:11;;;;;;;11.50;7.50;;;;;;;22.89;29.76;101428.20;104485;1307;62052;-82
2022/02/15 03:14:37;;;;;;;11.30;7.50;;;;;;;22.89;29.62;101429.23;104532;1307;62084;-79
2022/02/15 03:17:06;;;;;;;10.10;7.50;;;;;;;22.90;29.73;101422.94;104546;1307;62061;-85
2022/02/15 03:19:43;;;;;;;10.10;7.00;;;;;;;22.90;29.74;101419.55;104620;1307;72732;-84
2022/02/15 03:22:09;;;;;;;10.10;7.10;;;;;;;22.90;29.63;101424.02;104423;1308;75432;-84
2022/02/15 03:24:43;;;;;;;11.10;7.20;;;;;;;22.90;29.66;101434.27;104699;1307;61991;-84
2022/02/15 03:27:14;;;;;;;10.00;7.50;;;;;;;22.90;29.70;101438.39;104463;1308;62098;-86
2022/02/15 03:29:51;;;;;;;9.50;7.60;;;;;;;22.89;29.65;101443.79;104454;1307;73276;-82
2022/02/15 03:32:29;;;;;;;12.40;7.80;;;;;;;22.89;29.64;101442.37;104431;1308;76030;-86
2022/02/15 03:34:57;;;;;;;10.60;7.30;;;;;;;22.90;29.81;101442.88;104701;1306;62070;-79
2022/02/15 03:37:30;;;;;;;10.00;7.20;;;;;;;22.90;29.71;101440.36;104509;1307;62201;-79
2022/02/15 03:40:10;;;;;;;10.30;7.40;;;;;;;22.89;29.81;101433.20;104506;1308;74588;-83
2022/02/15 03:45:23;;;;;;;11.40;7.70;;;;;;;22.90;29.65;101434.09;104537;1307;61989;-85
2022/02/15 03:47:56;;;;;;;9.90;7.70;;;;;;;22.90;29.65;101432.47;104454;1308;62121;-82
2022/02/15 03:50:33;;;;;;;11.60;7.50;;;;;;;22.89;29.62;101428.02;104713;1306;72759;-82
2022/02/15 03:53:00;;;;;;;12.40;7.50;;;;;;;22.89;29.63;101428.20;104602;1308;75662;-83
2022/02/15 03:55:38;;;;;;;11.20;7.90;;;;;;;22.88;29.56;101427.00;104593;1308;62110;-83
2022/02/15 03:58:22;;;;;;;12.00;8.50;;;;;;;22.89;29.60;101428.38;104529;1307;61971;-83
2022/02/15 04:00:51;;;;;;;11.00;7.40;;;;;;;22.88;29.68;101424.34;104596;1307;72740;-83
2022/02/15 04:03:19;;;;;;;10.70;8.10;;;;;;;22.88;29.52;101421.97;104501;1308;76713;-82
2022/02/15 04:06:00;;;;;;;;;;;;;;;;;;;;;
2022/02/15 04:08:33;;;;;;;11.40;7.80;;;;;;;22.89;29.64;101426.59;104537;1308;62005;-84
2022/02/15 04:11:17;;;;;;;11.40;7.90;;;;;;;22.89;29.63;101420.15;104493;1308;72787;-83
2022/02/15 04:13:52;;;;;;;12.60;8.40;;;;;;;22.89;29.62;101417.09;104294;1308;75588;-81
2022/02/15 04:16:41;;;;;;;11.80;7.60;;;;;;;22.88;29.59;101411.90;104514;1306;62260;-84
2022/02/15 04:19:07;;;;;;;15.40;8.90;;;;;;;22.89;29.49;101410.64;104289;1311;62041;-81
2022/02/15 04:21:41;;;;;;;11.40;7.60;;;;;;;22.89;29.59;101405.94;104265;1311;72902;-82
2022/02/15 04:24:13;;;;;;;14.60;8.60;;;;;;;22.89;29.58;101402.01;104247;1311;75782;-82
2022/02/15 04:26:49;;;;;;;14.90;9.40;;;;;;;22.89;29.46;101405.58;104262;1311;62560;-83
2022/02/15 04:29:17;;;;;;;12.00;8.90;;;;;;;22.89;29.67;101407.77;104275;1313;62170;-82
2022/02/15 04:31:59;;;;;;;;;;;;;;;;;;;;;
2022/02/15 04:34:28;;;;;;;15.30;9.40;;;;;;;22.88;29.61;101418.39;104213;1313;76670;-87
2022/02/15 04:36:56;;;;;;;12.70;9.10;;;;;;;22.88;29.48;101424.17;104287;1311;62395;-84
2022/02/15 04:39:33;;;;;;;13.70;9.30;;;;;;;22.87;29.58;101434.12;104273;1311;62147;-83
2022/02/15 04:42:05;;;;;;;13.40;9.40;;;;;;;22.85;29.40;101432.41;104260;1311;74086;-88
2022/02/15 04:44:56;;;;;;;13.90;10.20;;;;;;;22.84;29.42;101430.69;104229;1311;76441;-85
2022/02/15 04:47:24;;;;;;;14.60;10.10;;;;;;;22.83;29.43;101437.04;103799;1319;62011;-83
2022/02/15 04:50:02;;;;;;;13.30;9.90;;;;;;;22.84;29.04;101438.81;103404;1319;62004;-83
2022/02/15 04:52:54;;;;;;;14.30;9.90;;;;;;;22.83;29.19;101441.52;103541;1319;72987;-84
2022/02/15 04:55:41;;;;;;;15.70;10.40;;;;;;;22.83;29.34;101444.40;103742;1314;74834;-84
2022/02/15 04:58:20;;;;;;;15.30;9.70;;;;;;;22.82;28.98;101452.56;104046;1313;61978;-82
2022/02/15 05:01:06;;;;;;;18.50;11.60;;;;;;;22.82;29.12;101456.70;104167;1313;62219;-83
2022/02/15 05:03:34;;;;;;;16.50;11.70;;;;;;;22.81;28.86;101464.70;104178;1313;71680;-82
2022/02/15 05:06:20;;;;;;;21.60;11.90;;;;;;;22.80;28.82;101464.02;104155;1313;75629;-83
2022/02/15 05:08:46;;;;;;;15.80;12.00;;;;;;;22.80;28.70;101463.50;104147;1316;62119;-82
2022/02/15 05:11:18;;;;;;;20.90;12.10;;;;;;;22.79;28.68;101460.86;104147;1315;61979;-82
2022/02/15 05:13:58;;;;;;;18.40;12.70;;;;;;;22.79;28.77;101458.19;104034;1316;62154;-84
2022/02/15 05:16:35;;;;;;;17.20;12.30;;;;;;;22.79;28.51;101461.60;104240;1313;76550;-86
2022/02/15 05:19:01;;;;;;;17.10;12.20;;;;;;;22.79;28.41;101464.29;104055;1314;62094;-87
2022/02/15 05:21:41;;;;;;;17.00;11.30;;;;;;;22.77;28.49;101465.47;104082;1313;62373;-81
2022/02/15 05:24:17;;;;;;;19.90;11.80;;;;;;;22.74;28.37;101467.48;104198;1308;73954;-85
2022/02/15 05:26:45;;;;;;;22.80;14.70;;;;;;;22.69;28.13;101467.46;104520;1308;75635;-85
2022/02/15 05:29:22;;;;;;;27.00;16.40;;;;;;;22.63;28.16;101474.83;104646;1304;62086;-84
2022/02/15 05:32:02;;;;;;;24.10;16.40;;;;;;;22.59;27.91;101481.02;104379;1308;62002;-81
2022/02/15 05:34:48;;;;;;;30.10;17.80;;;;;;;22.56;27.89;101485.34;104416;1308;73822;-85
2022/02/15 05:37:14;;;;;;;27.30;17.40;;;;;;;22.54;27.70;101489.10;104278;1308;75471;-79
2022/02/15 05:39:43;;;;;;;24.30;16.70;;;;;;;22.52;27.45;101490.83;104299;1308;62121;-84
2022/02/15 05:42:11;;;;;;;;;;;;;;;22.50;27.28;101494.54;104223;1308;60577;-80
2022/02/15 05:44:39;;;;;;;26.60;18.40;;;;;;;22.45;27.29;101498.86;104289;1308;72683;-80
2022/02/15 05:47:05;;;;;;;30.40;19.10;;;;;;;22.43;27.34;101493.95;104082;1308;62212;-79
2022/02/15 05:49:30;;;;;;;33.50;19.30;;;;;;;22.40;27.02;101495.52;104328;1305;62222;-80
2022/02/15 05:51:56;;;;;;;27.20;17.60;;;;;;;22.39;26.85;101492.96;104049;1308;60906;-81
2022/02/15 05:54:22;;;;;;;28.90;17.60;;;;;;;22.37;26.63;101497.93;104107;1305;62145;-79
2022/02/15 05:56:48;;;;;;;28.30;19.00;;;;;;;22.34;26.57;101502.20;104006;1308;62069;-79
2022/02/15 05:59:13;;;;;;;28.70;18.70;;;;;;;22.30;26.38;101505.32;104317;1308;74964;-80
2022/02/15 06:01:40;;;;;;;30.50;20.50;;;;;;;22.25;26.30;101505.30;103984;1305;61975;-80
2022/02/15 06:04:11;;;;;;;31.00;17.60;;;;;;;22.21;26.04;101505.95;103956;1305;62116;-79
2022/02/15 06:06:41;;;;;;;29.40;16.40;;;;;;;22.15;26.30;101510.77;104048;1306;72819;-79
2022/02/15 06:09:06;;;;;;;27.60;17.90;;;;;;;22.14;26.47;101511.91;103953;1308;76845;-78
2022/02/15 06:11:32;;;;;;;25.90;17.30;;;;;;;22.16;26.41;101507.67;103971;1308;62199;-79
2022/02/15 06:13:58;;;;;;;27.10;18.60;;;;;;;22.21;26.18;101510.05;104110;1308;62125;-78
2022/02/15 06:16:24;;;;;;;27.70;17.10;;;;;;;22.25;26.19;101510.11;104035;1308;62072;-78
2022/02/15 06:18:50;;;;;;;23.80;16.50;;;;;;;22.31;26.18;101512.08;104217;1305;64640;-79
2022/02/15 06:21:17;;;;;;;25.30;16.70;;;;;;;22.36;26.18;101515.15;104104;1308;62122;-78
2022/02/15 06:23:42;;;;;;;23.50;15.50;;;;;;;22.41;26.19;101514.46;105020;1305;61116;-78
2022/02/15 06:26:08;;;;;;;25.70;15.40;;;;;;;22.48;26.24;101515.48;104522;1307;62207;-77
2022/02/15 06:28:33;;;;;;;22.60;15.00;;;;;;;22.54;26.20;101511.48;103997;1308;73912;-78
2022/02/15 06:30:59;;;;;;;26.90;15.50;;;;;;;22.59;26.31;101511.17;104207;1305;62242;-78
2022/02/15 06:33:25;;;;;;;22.20;14.70;;;;;;;22.64;26.48;101503.48;103889;1308;62098;-79
2022/02/15 06:35:51;;;;;;;24.10;14.60;;;;;;;22.69;26.52;101500.08;103879;1308;62155;-78
2022/02/15 06:38:17;;;;;;;22.70;13.90;;;;;;;22.73;26.62;101500.00;103771;1308;62074;-78
2022/02/15 06:40:43;;;;;;;24.10;14.80;;;;;;;22.76;26.54;101493.34;103764;1306;62140;-78
2022/02/15 06:43:10;;;;;;;21.70;14.40;;;;;;;22.80;26.42;101497.95;104077;1305;62076;-78
2022/02/15 06:45:36;;;;;;;22.70;14.80;;;;;;;22.81;26.56;101494.95;103754;1307;62136;-79
2022/02/15 06:48:05;;;;;;;24.10;14.30;;;;;;;22.85;26.55;101505.86;103919;1305;62075;-78
2022/02/15 06:50:31;;;;;;;24.60;15.10;;;;;;;22.87;26.57;101505.16;103840;1305;72626;-78
2022/02/15 06:52:56;;;;;;;23.40;14.00;;;;;;;22.89;26.46;101503.39;103613;1305;63061;-78
2022/02/15 06:55:22;;;;;;;34.20;17.20;;;;;;;22.92;26.56;101499.61;103445;1305;62111;-80
2022/02/15 06:57:47;;;;;;;29.80;17.40;;;;;;;22.86;26.23;101502.53;103706;1305;62225;-79
2022/02/15 07:00:13;;;;;;;30.50;19.30;;;;;;;22.78;26.35;101505.45;103465;1308;62123;-78
2022/02/15 07:02:39;;;;;;;29.50;19.00;;;;;;;22.73;26.40;101507.17;103378;1308;62684;-78
2022/02/15 07:05:05;;;;;;;32.30;18.70;;;;;;;22.73;26.39;101506.83;103662;1305;76706;-77
2022/02/15 07:07:33;;;;;;;29.20;17.70;;;;;;;22.74;26.28;101505.33;103639;1308;62203;-78
2022/02/15 07:09:58;;;;;;;34.50;20.80;;;;;;;22.73;26.36;101502.14;103604;1305;62169;-80
2022/02/15 07:12:24;;;;;;;38.90;21.30;;;;;;;22.69;26.16;101497.04;103695;1308;62097;-79
2022/02/15 07:14:50;;;;;;;28.40;20.80;;;;;;;22.63;26.24;101501.05;103647;1307;62119;-78
2022/02/15 07:17:16;;;;;;;33.00;20.80;;;;;;;22.56;26.32;101496.29;103789;1308;62077;-79
2022/02/15 07:19:42;;;;;;;35.60;22.40;;;;;;;22.50;25.77;101491.52;103782;1305;63488;-80
2022/02/15 07:22:09;;;;;;;42.10;22.40;;;;;;;22.46;25.77;101488.55;103880;1306;63852;-80
2022/02/15 07:24:36;;;;;;;37.80;23.30;;;;;;;22.42;25.55;101493.95;103578;1308;62116;-80
2022/02/15 07:27:01;;;;;;;30.20;21.20;;;;;;;22.39;25.52;101490.98;103882;1308;60369;-83
2022/02/15 07:29:30;;;;;;;34.80;21.30;;;;;;;22.36;25.58;101483.07;103687;1308;62123;-79
2022/02/15 07:31:55;;;;;;;35.90;22.10;;;;;;;22.37;25.60;101478.55;103857;1308;60350;-79
2022/02/15 07:34:21;;;;;;;33.70;21.40;;;;;;;22.39;25.68;101476.44;103844;1305;64352;-79
2022/02/15 07:36:50;;;;;;;39.30;24.00;;;;;;;22.42;25.82;101478.20;103738;1306;62261;-81
2022/02/15 07:39:17;;;;;;;38.40;23.90;;;;;;;22.44;25.62;101482.39;103959;1305;63841;-79
2022/02/15 07:41:42;;;;;;;40.50;24.30;;;;;;;22.43;25.70;101482.64;103774;1306;62010;-78
2022/02/15 07:44:08;;;;;;;41.00;23.80;;;;;;;22.40;25.50;101478.69;103568;1308;62282;-79
2022/02/15 07:46:34;;;;;;;33.10;22.20;;;;;;;22.38;25.49;101475.43;103738;1305;60746;-80
2022/02/15 07:49:01;;;;;;;29.80;21.70;;;;;;;22.36;25.48;101478.23;103672;1307;62096;-79
2022/02/15 07:51:26;;;;;;;32.60;22.50;;;;;;;22.33;25.36;101478.73;105089;1305;60278;-80
2022/02/15 07:53:52;;;;;;;44.10;23.70;;;;;;;22.30;25.25;101480.58;105034;1305;60142;-80
2022/02/15 07:56:19;;;;;;;43.50;21.50;;;;;;;22.11;25.03;101488.08;105150;1305;61298;-82
2022/02/15 07:58:45;;;;;;;34.30;20.80;;;;;;;21.96;25.58;101487.40;105036;1308;60361;-80
2022/02/15 08:01:11;;;;;;;34.20;19.30;;;;;;;21.86;25.67;101481.99;104756;1306;60516;-78
2022/02/15 08:03:38;;;;;;;29.60;18.90;;;;;;;21.85;25.80;101477.93;103672;1305;62308;-78
2022/02/15 08:06:04;;;;;;;31.60;20.10;;;;;;;21.88;26.00;101480.79;103547;1305;62146;-79
2022/02/15 08:08:29;;;;;;;31.50;19.50;;;;;;;21.93;26.11;101471.69;103825;1305;62135;-77
2022/02/15 08:10:57;;;;;;;31.90;18.30;;;;;;;21.98;25.94;101460.81;103633;1308;62294;-79
2022/02/15 08:13:24;;;;;;;29.90;18.50;;;;;;;22.03;26.00;101462.96;103766;1305;62001;-79
2022/02/15 08:15:51;;;;;;;31.40;18.30;;;;;;;22.09;26.01;101462.76;103730;1305;76999;-79
2022/02/15 08:18:17;;;;;;;27.10;18.30;;;;;;;22.15;25.86;101457.92;103626;1305;62074;-78
2022/02/15 08:20:43;;;;;;;25.10;17.30;;;;;;;22.20;25.85;101452.17;103708;1308;62118;-80
2022/02/15 08:23:10;;;;;;;25.30;16.00;;;;;;;22.24;25.76;101452.96;103546;1308;62175;-79
2022/02/15 08:25:37;;;;;;;30.40;17.00;;;;;;;22.31;25.74;101451.30;103599;1306;62101;-78
2022/02/15 08:28:03;;;;;;;28.70;15.80;;;;;;;22.36;25.57;101450.83;103577;1308;62218;-79
2022/02/15 08:30:29;;;;;;;25.00;15.50;;;;;;;22.40;25.60;101452.83;103761;1307;62082;-78
2022/02/15 08:32:57;;;;;;;28.20;15.10;;;;;;;22.45;25.56;101451.27;103749;1308;72340;-79
2022/02/15 08:35:23;;;;;;;28.10;15.40;;;;;;;22.48;25.47;101447.13;103623;1308;62253;-79
2022/02/15 08:37:50;;;;;;;23.70;16.00;;;;;;;22.50;25.62;101435.70;103671;1308;62179;-78
2022/02/15 08:40:16;;;;;;;25.90;14.90;;;;;;;22.52;25.48;101437.58;104555;1308;60412;-79
2022/02/15 08:42:42;;;;;;;25.00;13.90;;;;;;;22.53;25.31;101438.04;103718;1308;62221;-79
2022/02/15 08:45:09;;;;;;;20.70;13.60;;;;;;;22.53;25.41;101443.58;103870;1308;62239;-78
2022/02/15 08:47:35;;;;;;;25.10;14.70;;;;;;;22.53;25.29;101446.84;103619;1308;62165;-79
2022/02/15 08:50:01;;;;;;;25.20;15.10;;;;;;;22.50;25.40;101451.15;104401;1308;62101;-78
2022/02/15 08:52:27;;;;;;;21.70;15.50;;;;;;;22.46;25.03;101448.53;103500;1308;62123;-78
2022/02/15 08:54:54;;;;;;;27.60;15.20;;;;;;;22.41;25.19;101448.14;103590;1308;62206;-79
2022/02/15 08:57:20;;;;;;;24.50;15.30;;;;;;;22.35;24.95;101451.41;103611;1308;62166;-79
2022/02/15 08:59:47;;;;;;;24.80;14.70;;;;;;;22.29;24.88;101451.40;103495;1308;62134;-80
2022/02/15 09:02:13;;;;;;;31.20;17.90;;;;;;;22.22;24.96;101459.21;103534;1307;62070;-79
2022/02/15 09:04:39;;;;;;;26.80;16.60;;;;;;;22.08;24.82;101462.09;103425;1308;62107;-80
2022/02/15 09:07:06;;;;;;;29.00;15.10;;;;;;;21.95;25.21;101472.64;103515;1308;62150;-80
2022/02/15 09:09:33;;;;;;;24.20;15.70;;;;;;;21.87;25.54;101473.66;103585;1307;62246;-79
2022/02/15 09:11:58;;;;;;;32.90;15.30;;;;;;;21.81;25.93;101465.44;103631;1308;62080;-78
2022/02/15 09:14:24;;;;;;;26.30;14.20;;;;;;;21.80;25.95;101467.50;103796;1308;63800;-79
2022/02/15 09:16:50;;;;;;;21.30;12.20;;;;;;;21.79;26.29;101461.48;103720;1308;62119;-79
2022/02/15 09:19:16;;;;;;;17.50;11.20;;;;;;;21.80;26.37;101458.19;103800;1305;62641;-79
2022/02/15 09:21:45;;;;;;;17.00;11.20;;;;;;;21.82;26.58;101459.15;103957;1308;62177;-79
2022/02/15 09:24:11;;;;;;;20.40;12.60;;;;;;;21.82;26.76;101456.95;103814;1308;73988;-79
2022/02/15 09:26:37;;;;;;;24.50;14.10;;;;;;;21.83;26.58;101457.79;103848;1308;62582;-78
2022/02/15 09:29:03;;;;;;;26.90;16.60;;;;;;;21.83;26.53;101457.27;103865;1308;62221;-80
2022/02/15 09:31:32;;;;;;;25.00;15.90;;;;;;;21.82;26.20;101458.55;103865;1308;62146;-80
2022/02/15 09:33:57;;;;;;;22.40;15.20;;;;;;;21.83;26.25;101456.02;104083;1308;72936;-77
2022/02/15 09:36:25;;;;;;;24.40;15.10;;;;;;;21.83;26.46;101438.60;104067;1307;59994;-80
2022/02/15 09:38:51;;;;;;;21.40;14.20;;;;;;;21.83;26.31;101434.86;104060;1308;61954;-79
2022/02/15 09:41:17;;;;;;;26.20;14.90;;;;;;;21.83;26.32;101430.73;104139;1305;62143;-80
2022/02/15 09:43:42;;;;;;;23.10;14.30;;;;;;;21.83;26.28;101425.55;104038;1305;62167;-78
2022/02/15 09:46:09;;;;;;;28.20;15.20;;;;;;;21.84;26.42;101422.10;103984;1308;61993;-78
2022/02/15 09:48:36;;;;;;;27.00;15.10;;;;;;;21.84;26.45;101415.84;104037;1305;62076;-78
2022/02/15 09:51:01;;;;;;;26.10;16.40;;;;;;;21.83;26.41;101408.52;104331;1308;62091;-79
2022/02/15 09:53:27;;;;;;;27.20;16.40;;;;;;;21.83;26.50;101406.20;103985;1305;62130;-79
2022/02/15 09:55:52;;;;;;;28.00;17.00;;;;;;;21.72;26.28;101405.67;103966;1305;62087;-78
2022/02/15 09:58:18;;;;;;;33.50;15.60;;;;;;;21.55;26.03;101400.10;104006;1305;62363;-80
2022/02/15 10:00:53;;;;;;;32.10;15.50;;;;;;;21.48;26.10;101395.89;103467;1310;601372;-79
2022/02/15 10:03:20;;;;;;;29.90;15.20;;;;;;;21.43;26.28;101394.95;103856;1312;59205;-80
2022/02/15 10:05:49;;;;;;;28.70;15.60;;;;;;;21.34;26.18;101395.29;103950;1309;59346;-79
2022/02/15 10:08:31;;;;;;;34.40;13.90;;;;;;;21.18;26.00;101388.44;103625;1309;60589;-79
2022/02/15 10:11:09;;;;;;;28.90;13.60;;;;;;;21.10;26.70;101393.23;104740;1309;73807;-79
2022/02/15 10:13:45;;;;;;;23.10;13.50;;;;;;;21.17;27.30;101390.27;104666;1306;261548;-79
2022/02/15 10:16:10;;;;;;;24.80;12.80;;;;;;;21.24;27.46;101385.34;104886;1305;60279;-79
2022/02/15 10:18:37;;;;;;;22.40;12.90;;;;;;;21.28;27.44;101379.02;105303;1306;58339;-79
2022/02/15 10:21:04;;;;;;;22.80;12.90;;;;;;;21.33;27.22;101381.97;105151;1305;59361;-80
2022/02/15 10:23:31;;;;;;;22.20;12.00;;;;;;;21.36;27.16;101376.20;103902;1306;72194;-80
2022/02/15 10:25:57;;;;;;;21.00;12.60;;;;;;;21.39;27.04;101365.63;105261;1306;61358;-80
2022/02/15 10:28:24;;;;;;;19.50;12.20;;;;;;;21.40;26.95;101358.94;105064;1306;57795;-79
2022/02/15 10:30:54;;;;;;;20.90;12.20;;;;;;;21.43;26.87;101358.74;104564;1306;72713;-80
2022/02/15 10:33:21;;;;;;;24.20;12.00;;;;;;;21.45;27.07;101360.25;104402;1306;73120;-80
2022/02/15 10:36:04;;;;;;;18.00;11.60;;;;;;;21.47;26.82;101358.88;104940;1309;60475;-79
2022/02/15 10:38:40;;;;;;;20.00;11.50;;;;;;;21.48;26.91;101350.36;104029;1309;61658;-79
2022/02/15 10:41:28;;;;;;;19.70;11.30;;;;;;;21.50;26.71;101344.88;104092;1309;74035;-80
2022/02/15 10:43:56;;;;;;;15.90;10.20;;;;;;;21.50;26.76;101345.95;103948;1308;73368;-79
2022/02/15 10:46:23;;;;;;;30.30;10.80;;;;;;;21.51;26.58;101344.48;104950;1308;59895;-79
2022/02/15 10:48:48;;;;;;;18.40;10.70;;;;;;;21.51;26.72;101339.48;104040;1306;62010;-79
2022/02/15 10:51:14;;;;;;;19.00;10.70;;;;;;;21.51;26.77;101336.94;103878;1309;59714;-78
2022/02/15 10:53:41;;;;;;;22.00;12.00;;;;;;;21.52;26.65;101332.76;103609;1307;59727;-79
2022/02/15 10:56:08;;;;;;;23.20;11.80;;;;;;;21.45;26.44;101337.71;103802;1309;59317;-79
2022/02/15 10:58:34;;;;;;;22.90;11.30;;;;;;;21.36;26.12;101339.11;103772;1309;60423;-79
2022/02/15 11:01:01;;;;;;;19.90;11.30;;;;;;;21.30;26.26;101332.94;104223;1309;59353;-79
2022/02/15 11:03:33;;;;;;;18.00;11.10;;;;;;;21.25;26.11;101330.52;104159;1306;58295;-79
2022/02/15 11:05:59;;;;;;;20.90;11.00;;;;;;;21.26;26.24;101334.77;105260;1306;61417;-79
2022/02/15 11:08:24;;;;;;;17.90;10.60;;;;;;;21.29;26.38;101333.34;105034;1306;57965;-79
2022/02/15 11:11:13;;;;;;;20.00;11.00;;;;;;;21.31;26.45;101334.62;104911;1306;58420;-79
2022/02/15 11:13:38;;;;;;;17.50;11.00;;;;;;;21.33;26.18;101328.56;105051;1308;73045;-80
2022/02/15 11:16:11;;;;;;;21.90;12.00;;;;;;;21.35;26.16;101328.81;104889;1306;58213;-79
2022/02/15 11:18:36;;;;;;;21.60;11.90;;;;;;;21.37;26.24;101328.71;104950;1306;60505;-79
2022/02/15 11:21:03;;;;;;;19.50;12.10;;;;;;;21.38;26.32;101327.21;105135;1306;58667;-79
2022/02/15 11:23:59;;;;;;;21.90;11.60;;;;;;;21.39;26.33;101321.04;104768;1309;59692;-79
2022/02/15 11:26:35;;;;;;;20.40;11.60;;;;;;;21.41;26.17;101322.01;103728;1314;60731;-78
2022/02/15 11:29:00;;;;;;;17.10;11.60;;;;;;;21.41;26.31;101316.95;104462;1315;60285;-78
2022/02/15 11:31:31;;;;;;;16.50;11.80;;;;;;;21.42;26.29;101318.16;104265;1314;58157;-79
2022/02/15 11:34:04;;;;;;;20.80;11.40;;;;;;;21.39;26.32;101311.70;104562;1314;73349;-79